Alta Loma, Texas
Current Conditions -  °F | °C
As of 6:52 AM on Saturday 01 Nov 2014 (Local Time) from KGLS Reporting Station
Light Rain Light Rain  
Wind Chill: 55°   Ceiling: Unl
Heat Index: 55°   Visibility: 10mi
Dew Point: 46°   Wind: 18mph
Humidity: 72%   Direction: 30°NNE
Pressure: 30.35"   Gusts: NA
Location:  29.359°N, 95.0861°W
Report Text: KGLS 011152Z 03016KT 10SM -RA CLR 13/08 A3035 RMK AO2 RAB41 SLP275 P0000 60000 T01280078 10178 20128 53020
Loading
Personal Weather Stations






























Interactive Weather Map
Tropical Storm Tracking
New forecast layout! Learn more

10-Day Weather Forecast

Advertisements
Track Severe Weather on mobile